sensor_id;sensor_type;location;lat;lon;timestamp;temperature;humidity
37446;DHT22;23307;51.136;14.942;2022-09-13T00:01:32;14.20;99.90
37446;DHT22;23307;51.136;14.942;2022-09-13T00:03:57;14.20;99.90
37446;DHT22;23307;51.136;14.942;2022-09-13T00:06:23;14.20;99.90
37446;DHT22;23307;51.136;14.942;2022-09-13T00:08:51;14.20;99.90
37446;DHT22;23307;51.136;14.942;2022-09-13T00:11:21;14.20;99.90
37446;DHT22;23307;51.136;14.942;2022-09-13T00:13:47;14.20;99.90
37446;DHT22;23307;51.136;14.942;2022-09-13T00:16:16;14.20;99.90
37446;DHT22;23307;51.136;14.942;2022-09-13T00:18:41;14.20;99.90
37446;DHT22;23307;51.136;14.942;2022-09-13T00:21:10;14.20;99.90
37446;DHT22;23307;51.136;14.942;2022-09-13T00:23:36;14.10;99.90
37446;DHT22;23307;51.136;14.942;2022-09-13T00:26:08;14.10;99.90
37446;DHT22;23307;51.136;14.942;2022-09-13T00:28:36;14.00;99.90
37446;DHT22;23307;51.136;14.942;2022-09-13T00:31:04;13.90;99.90
37446;DHT22;23307;51.136;14.942;2022-09-13T00:33:30;14.00;99.90
37446;DHT22;23307;51.136;14.942;2022-09-13T00:35:55;13.90;99.90
37446;DHT22;23307;51.136;14.942;2022-09-13T00:38:22;13.90;99.90
37446;DHT22;23307;51.136;14.942;2022-09-13T00:40:48;13.90;99.90
37446;DHT22;23307;51.136;14.942;2022-09-13T00:43:36;13.90;99.90
37446;DHT22;23307;51.136;14.942;2022-09-13T00:46:04;13.90;99.90
37446;DHT22;23307;51.136;14.942;2022-09-13T00:48:31;13.90;99.90
37446;DHT22;23307;51.136;14.942;2022-09-13T00:50:58;13.90;99.90
37446;DHT22;23307;51.136;14.942;2022-09-13T00:53:32;13.90;99.90
37446;DHT22;23307;51.136;14.942;2022-09-13T00:58:32;14.00;99.90
37446;DHT22;23307;51.136;14.942;2022-09-13T01:00:58;14.00;99.90
37446;DHT22;23307;51.136;14.942;2022-09-13T01:03:30;14.00;99.90
37446;DHT22;23307;51.136;14.942;2022-09-13T01:06:01;14.00;99.90
37446;DHT22;23307;51.136;14.942;2022-09-13T01:08:29;14.00;99.90
37446;DHT22;23307;51.136;14.942;2022-09-13T01:10:57;13.90;99.90
37446;DHT22;23307;51.136;14.942;2022-09-13T01:13:32;13.90;99.90
37446;DHT22;23307;51.136;14.942;2022-09-13T01:15:59;13.90;99.90
37446;DHT22;23307;51.136;14.942;2022-09-13T01:18:25;13.90;99.90
37446;DHT22;23307;51.136;14.942;2022-09-13T01:32:03;13.80;99.90
37446;DHT22;23307;51.136;14.942;2022-09-13T01:37:33;13.70;99.90
37446;DHT22;23307;51.136;14.942;2022-09-13T01:40:28;13.70;99.90
37446;DHT22;23307;51.136;14.942;2022-09-13T01:45:47;13.70;99.90
37446;DHT22;23307;51.136;14.942;2022-09-13T01:48:38;13.60;99.90
37446;DHT22;23307;51.136;14.942;2022-09-13T01:51:27;13.60;99.90
37446;DHT22;23307;51.136;14.942;2022-09-13T01:54:05;13.60;99.90
37446;DHT22;23307;51.136;14.942;2022-09-13T01:59:37;13.60;99.90
37446;DHT22;23307;51.136;14.942;2022-09-13T02:05:12;13.60;99.90
37446;DHT22;23307;51.136;14.942;2022-09-13T02:07:47;13.60;99.90
37446;DHT22;23307;51.136;14.942;2022-09-13T02:10:26;13.50;99.90
37446;DHT22;23307;51.136;14.942;2022-09-13T02:12:57;13.50;99.90
37446;DHT22;23307;51.136;14.942;2022-09-13T02:15:26;13.50;99.90
37446;DHT22;23307;51.136;14.942;2022-09-13T02:18:02;13.50;99.90
37446;DHT22;23307;51.136;14.942;2022-09-13T02:20:33;13.50;99.90
37446;DHT22;23307;51.136;14.942;2022-09-13T02:23:03;13.50;99.90
37446;DHT22;23307;51.136;14.942;2022-09-13T02:25:31;13.50;99.90
37446;DHT22;23307;51.136;14.942;2022-09-13T02:28:01;13.50;99.90
37446;DHT22;23307;51.136;14.942;2022-09-13T02:30:31;13.50;99.90
37446;DHT22;23307;51.136;14.942;2022-09-13T02:33:06;13.50;99.90
37446;DHT22;23307;51.136;14.942;2022-09-13T02:35:39;13.50;99.90
37446;DHT22;23307;51.136;14.942;2022-09-13T02:38:19;13.50;99.90
37446;DHT22;23307;51.136;14.942;2022-09-13T02:41:20;13.50;99.90
37446;DHT22;23307;51.136;14.942;2022-09-13T02:43:51;13.50;99.90
37446;DHT22;23307;51.136;14.942;2022-09-13T02:54:56;13.50;99.90
37446;DHT22;23307;51.136;14.942;2022-09-13T02:57:32;13.50;99.90
37446;DHT22;23307;51.136;14.942;2022-09-13T03:00:04;13.40;99.90
37446;DHT22;23307;51.136;14.942;2022-09-13T03:02:33;13.40;99.90
37446;DHT22;23307;51.136;14.942;2022-09-13T03:05:00;13.50;99.90
37446;DHT22;23307;51.136;14.942;2022-09-13T03:07:27;13.40;99.90
37446;DHT22;23307;51.136;14.942;2022-09-13T03:10:04;13.40;99.90
37446;DHT22;23307;51.136;14.942;2022-09-13T03:20:49;13.40;99.90
37446;DHT22;23307;51.136;14.942;2022-09-13T03:30:02;13.60;99.90
37446;DHT22;23307;51.136;14.942;2022-09-13T03:32:40;13.60;99.90
37446;DHT22;23307;51.136;14.942;2022-09-13T03:38:00;13.80;99.90
37446;DHT22;23307;51.136;14.942;2022-09-13T03:40:52;13.90;99.90
37446;DHT22;23307;51.136;14.942;2022-09-13T03:43:21;14.00;99.90
37446;DHT22;23307;51.136;14.942;2022-09-13T03:45:56;14.00;99.90
37446;DHT22;23307;51.136;14.942;2022-09-13T03:48:24;14.10;99.90
37446;DHT22;23307;51.136;14.942;2022-09-13T03:50:50;14.20;99.90
37446;DHT22;23307;51.136;14.942;2022-09-13T03:53:25;14.30;99.90
37446;DHT22;23307;51.136;14.942;2022-09-13T03:55:51;14.40;99.90
37446;DHT22;23307;51.136;14.942;2022-09-13T03:58:18;14.40;99.90
37446;DHT22;23307;51.136;14.942;2022-09-13T04:00:44;14.50;99.90
37446;DHT22;23307;51.136;14.942;2022-09-13T04:03:11;14.50;99.90
37446;DHT22;23307;51.136;14.942;2022-09-13T04:05:37;14.50;99.90
37446;DHT22;23307;51.136;14.942;2022-09-13T04:08:04;14.60;99.90
37446;DHT22;23307;51.136;14.942;2022-09-13T04:10:32;14.60;99.90
37446;DHT22;23307;51.136;14.942;2022-09-13T04:12:58;14.70;99.90
37446;DHT22;23307;51.136;14.942;2022-09-13T04:15:25;14.70;99.90
37446;DHT22;23307;51.136;14.942;2022-09-13T04:17:51;14.70;99.90
37446;DHT22;23307;51.136;14.942;2022-09-13T04:20:16;14.70;99.90
37446;DHT22;23307;51.136;14.942;2022-09-13T04:22:42;14.80;99.90
37446;DHT22;23307;51.136;14.942;2022-09-13T04:25:08;14.80;99.90
37446;DHT22;23307;51.136;14.942;2022-09-13T04:27:34;14.80;99.90
37446;DHT22;23307;51.136;14.942;2022-09-13T04:30:00;14.80;99.90
37446;DHT22;23307;51.136;14.942;2022-09-13T04:32:27;14.80;99.90
37446;DHT22;23307;51.136;14.942;2022-09-13T04:34:52;14.80;99.90
37446;DHT22;23307;51.136;14.942;2022-09-13T04:37:19;14.80;99.90
37446;DHT22;23307;51.136;14.942;2022-09-13T04:39:45;14.80;99.90
37446;DHT22;23307;51.136;14.942;2022-09-13T04:42:11;14.80;99.90
37446;DHT22;23307;51.136;14.942;2022-09-13T04:44:37;14.70;99.90
37446;DHT22;23307;51.136;14.942;2022-09-13T04:47:03;14.80;99.90
37446;DHT22;23307;51.136;14.942;2022-09-13T04:49:29;14.80;99.90
37446;DHT22;23307;51.136;14.942;2022-09-13T04:51:55;14.80;99.90
37446;DHT22;23307;51.136;14.942;2022-09-13T04:54:21;14.80;99.90
37446;DHT22;23307;51.136;14.942;2022-09-13T04:56:47;14.80;99.90
37446;DHT22;23307;51.136;14.942;2022-09-13T04:59:13;14.80;99.90
37446;DHT22;23307;51.136;14.942;2022-09-13T05:01:39;14.80;99.90
37446;DHT22;23307;51.136;14.942;2022-09-13T05:04:05;14.80;99.90
37446;DHT22;23307;51.136;14.942;2022-09-13T05:06:31;14.90;99.90
37446;DHT22;23307;51.136;14.942;2022-09-13T05:08:57;14.80;99.90
37446;DHT22;23307;51.136;14.942;2022-09-13T05:11:25;14.90;99.90
37446;DHT22;23307;51.136;14.942;2022-09-13T05:13:52;14.90;99.90
37446;DHT22;23307;51.136;14.942;2022-09-13T05:16:20;14.90;99.90
37446;DHT22;23307;51.136;14.942;2022-09-13T05:18:47;14.90;99.90
37446;DHT22;23307;51.136;14.942;2022-09-13T05:21:13;15.00;99.90
37446;DHT22;23307;51.136;14.942;2022-09-13T05:23:38;15.00;99.90
37446;DHT22;23307;51.136;14.942;2022-09-13T05:26:05;15.00;99.90
37446;DHT22;23307;51.136;14.942;2022-09-13T05:28:33;15.10;99.90
37446;DHT22;23307;51.136;14.942;2022-09-13T05:31:01;15.10;99.90
37446;DHT22;23307;51.136;14.942;2022-09-13T05:33:29;15.20;99.90
37446;DHT22;23307;51.136;14.942;2022-09-13T05:35:56;15.30;99.90
37446;DHT22;23307;51.136;14.942;2022-09-13T05:38:22;15.30;99.90
37446;DHT22;23307;51.136;14.942;2022-09-13T05:40:57;15.40;99.90
37446;DHT22;23307;51.136;14.942;2022-09-13T05:43:24;15.50;99.90
37446;DHT22;23307;51.136;14.942;2022-09-13T05:45:50;15.50;99.90
37446;DHT22;23307;51.136;14.942;2022-09-13T05:48:15;15.50;99.90
37446;DHT22;23307;51.136;14.942;2022-09-13T05:50:41;15.50;99.90
37446;DHT22;23307;51.136;14.942;2022-09-13T05:53:06;15.50;99.90
37446;DHT22;23307;51.136;14.942;2022-09-13T05:55:32;15.50;99.90
37446;DHT22;23307;51.136;14.942;2022-09-13T05:58:00;15.50;99.90
37446;DHT22;23307;51.136;14.942;2022-09-13T06:00:26;15.50;99.90
37446;DHT22;23307;51.136;14.942;2022-09-13T06:02:52;15.40;99.90
37446;DHT22;23307;51.136;14.942;2022-09-13T06:05:17;15.50;99.90
37446;DHT22;23307;51.136;14.942;2022-09-13T06:07:43;15.50;99.90
37446;DHT22;23307;51.136;14.942;2022-09-13T06:10:09;15.50;99.90
37446;DHT22;23307;51.136;14.942;2022-09-13T06:12:36;15.60;99.90
37446;DHT22;23307;51.136;14.942;2022-09-13T06:15:02;15.60;99.90
37446;DHT22;23307;51.136;14.942;2022-09-13T06:17:27;15.70;99.90
37446;DHT22;23307;51.136;14.942;2022-09-13T06:19:53;15.80;99.90
37446;DHT22;23307;51.136;14.942;2022-09-13T06:22:19;15.80;99.90
37446;DHT22;23307;51.136;14.942;2022-09-13T06:24:44;15.80;99.90
37446;DHT22;23307;51.136;14.942;2022-09-13T06:27:10;15.90;99.90
37446;DHT22;23307;51.136;14.942;2022-09-13T06:29:36;15.90;99.90
37446;DHT22;23307;51.136;14.942;2022-09-13T06:32:03;16.00;99.90
37446;DHT22;23307;51.136;14.942;2022-09-13T06:34:29;16.10;99.90
37446;DHT22;23307;51.136;14.942;2022-09-13T06:36:54;16.10;99.90
37446;DHT22;23307;51.136;14.942;2022-09-13T06:39:20;16.20;99.90
37446;DHT22;23307;51.136;14.942;2022-09-13T06:41:46;16.20;99.90
37446;DHT22;23307;51.136;14.942;2022-09-13T06:44:11;16.20;99.90
37446;DHT22;23307;51.136;14.942;2022-09-13T06:46:37;16.30;99.90
37446;DHT22;23307;51.136;14.942;2022-09-13T06:49:05;16.30;99.90
37446;DHT22;23307;51.136;14.942;2022-09-13T06:51:32;16.30;99.90
37446;DHT22;23307;51.136;14.942;2022-09-13T06:53:58;16.30;99.90
37446;DHT22;23307;51.136;14.942;2022-09-13T06:56:29;16.30;99.90
37446;DHT22;23307;51.136;14.942;2022-09-13T06:58:58;16.30;99.90
37446;DHT22;23307;51.136;14.942;2022-09-13T07:01:30;16.40;99.90
37446;DHT22;23307;51.136;14.942;2022-09-13T07:04:07;16.40;99.90
37446;DHT22;23307;51.136;14.942;2022-09-13T07:06:36;16.50;99.90
37446;DHT22;23307;51.136;14.942;2022-09-13T07:09:04;16.60;99.90
37446;DHT22;23307;51.136;14.942;2022-09-13T07:11:32;16.60;99.90
37446;DHT22;23307;51.136;14.942;2022-09-13T07:13:58;16.80;99.90
37446;DHT22;23307;51.136;14.942;2022-09-13T07:16:26;16.90;99.90
37446;DHT22;23307;51.136;14.942;2022-09-13T07:18:54;17.20;99.90
37446;DHT22;23307;51.136;14.942;2022-09-13T07:21:21;17.30;99.90
37446;DHT22;23307;51.136;14.942;2022-09-13T07:23:48;17.40;99.90
37446;DHT22;23307;51.136;14.942;2022-09-13T07:26:14;17.40;99.90
37446;DHT22;23307;51.136;14.942;2022-09-13T07:28:42;17.50;99.90
37446;DHT22;23307;51.136;14.942;2022-09-13T07:31:22;17.60;99.90
37446;DHT22;23307;51.136;14.942;2022-09-13T07:33:56;17.60;99.90
37446;DHT22;23307;51.136;14.942;2022-09-13T07:36:23;17.60;99.90
37446;DHT22;23307;51.136;14.942;2022-09-13T07:38:49;17.60;99.90
37446;DHT22;23307;51.136;14.942;2022-09-13T07:41:18;17.60;99.90
37446;DHT22;23307;51.136;14.942;2022-09-13T07:43:44;17.70;99.90
37446;DHT22;23307;51.136;14.942;2022-09-13T07:46:13;17.80;99.90
37446;DHT22;23307;51.136;14.942;2022-09-13T07:48:40;17.80;99.90
37446;DHT22;23307;51.136;14.942;2022-09-13T07:51:13;17.90;99.90
37446;DHT22;23307;51.136;14.942;2022-09-13T07:53:41;18.00;99.90
37446;DHT22;23307;51.136;14.942;2022-09-13T07:58:38;18.20;99.90
37446;DHT22;23307;51.136;14.942;2022-09-13T08:03:58;18.40;99.90
37446;DHT22;23307;51.136;14.942;2022-09-13T08:06:25;18.40;99.90
37446;DHT22;23307;51.136;14.942;2022-09-13T08:08:51;18.50;99.90
37446;DHT22;23307;51.136;14.942;2022-09-13T08:11:23;18.50;99.90
37446;DHT22;23307;51.136;14.942;2022-09-13T08:13:51;18.60;99.90
37446;DHT22;23307;51.136;14.942;2022-09-13T08:16:19;18.60;99.90
37446;DHT22;23307;51.136;14.942;2022-09-13T08:18:47;18.60;99.90
37446;DHT22;23307;51.136;14.942;2022-09-13T08:21:13;18.50;99.90
37446;DHT22;23307;51.136;14.942;2022-09-13T08:23:39;18.50;99.90
37446;DHT22;23307;51.136;14.942;2022-09-13T08:26:05;18.50;99.90
37446;DHT22;23307;51.136;14.942;2022-09-13T08:28:33;18.50;99.90
37446;DHT22;23307;51.136;14.942;2022-09-13T08:31:06;18.50;99.90
37446;DHT22;23307;51.136;14.942;2022-09-13T08:33:32;18.50;99.90
37446;DHT22;23307;51.136;14.942;2022-09-13T08:35:58;18.40;99.90
37446;DHT22;23307;51.136;14.942;2022-09-13T08:38:24;18.40;99.90
37446;DHT22;23307;51.136;14.942;2022-09-13T08:40:54;18.40;99.90
37446;DHT22;23307;51.136;14.942;2022-09-13T08:43:28;18.30;99.90
37446;DHT22;23307;51.136;14.942;2022-09-13T08:46:05;18.30;99.90
37446;DHT22;23307;51.136;14.942;2022-09-13T08:51:51;18.40;99.90
37446;DHT22;23307;51.136;14.942;2022-09-13T08:54:18;18.40;99.90
37446;DHT22;23307;51.136;14.942;2022-09-13T08:57:12;18.40;99.90
37446;DHT22;23307;51.136;14.942;2022-09-13T08:59:43;18.40;99.90
37446;DHT22;23307;51.136;14.942;2022-09-13T09:05:22;18.30;99.90
37446;DHT22;23307;51.136;14.942;2022-09-13T09:07:52;18.30;99.90
37446;DHT22;23307;51.136;14.942;2022-09-13T09:10:35;18.30;99.90
37446;DHT22;23307;51.136;14.942;2022-09-13T09:13:06;18.30;99.90
37446;DHT22;23307;51.136;14.942;2022-09-13T09:16:10;18.40;99.90
37446;DHT22;23307;51.136;14.942;2022-09-13T09:18:41;18.40;99.90
37446;DHT22;23307;51.136;14.942;2022-09-13T09:21:15;18.50;99.90
37446;DHT22;23307;51.136;14.942;2022-09-13T09:23:50;18.60;99.90
37446;DHT22;23307;51.136;14.942;2022-09-13T09:26:24;18.50;99.90
37446;DHT22;23307;51.136;14.942;2022-09-13T09:28:55;18.60;99.90
37446;DHT22;23307;51.136;14.942;2022-09-13T09:31:56;18.60;99.90
37446;DHT22;23307;51.136;14.942;2022-09-13T09:37:19;18.60;99.90
37446;DHT22;23307;51.136;14.942;2022-09-13T09:39:51;18.70;99.90
37446;DHT22;23307;51.136;14.942;2022-09-13T09:42:26;18.70;99.90
37446;DHT22;23307;51.136;14.942;2022-09-13T09:44:57;18.70;99.90
37446;DHT22;23307;51.136;14.942;2022-09-13T09:47:32;18.70;99.90
37446;DHT22;23307;51.136;14.942;2022-09-13T09:50:12;18.70;99.90
37446;DHT22;23307;51.136;14.942;2022-09-13T09:52:43;18.70;99.90
37446;DHT22;23307;51.136;14.942;2022-09-13T09:55:31;18.70;99.90
37446;DHT22;23307;51.136;14.942;2022-09-13T09:58:06;18.80;99.90
37446;DHT22;23307;51.136;14.942;2022-09-13T10:00:58;18.90;99.90
37446;DHT22;23307;51.136;14.942;2022-09-13T10:03:28;19.10;99.90
37446;DHT22;23307;51.136;14.942;2022-09-13T10:08:36;19.20;99.90
37446;DHT22;23307;51.136;14.942;2022-09-13T10:11:02;19.20;99.90
37446;DHT22;23307;51.136;14.942;2022-09-13T10:13:29;19.30;99.90
37446;DHT22;23307;51.136;14.942;2022-09-13T10:16:00;19.30;99.90
37446;DHT22;23307;51.136;14.942;2022-09-13T10:18:31;19.40;99.90
37446;DHT22;23307;51.136;14.942;2022-09-13T10:21:23;19.40;99.90
37446;DHT22;23307;51.136;14.942;2022-09-13T10:23:49;19.40;99.90
37446;DHT22;23307;51.136;14.942;2022-09-13T10:26:20;19.50;99.90
37446;DHT22;23307;51.136;14.942;2022-09-13T10:31:17;19.70;99.90
37446;DHT22;23307;51.136;14.942;2022-09-13T10:36:20;20.00;99.90
37446;DHT22;23307;51.136;14.942;2022-09-13T10:39:13;20.10;99.90
37446;DHT22;23307;51.136;14.942;2022-09-13T10:41:54;20.10;99.90
37446;DHT22;23307;51.136;14.942;2022-09-13T10:46:55;20.30;99.90
37446;DHT22;23307;51.136;14.942;2022-09-13T10:49:44;20.30;99.90
37446;DHT22;23307;51.136;14.942;2022-09-13T10:52:31;20.40;99.90
37446;DHT22;23307;51.136;14.942;2022-09-13T10:57:49;20.60;99.90
37446;DHT22;23307;51.136;14.942;2022-09-13T11:00:22;20.70;99.90
37446;DHT22;23307;51.136;14.942;2022-09-13T11:06:31;21.00;99.90
37446;DHT22;23307;51.136;14.942;2022-09-13T11:22:53;21.80;99.90
37446;DHT22;23307;51.136;14.942;2022-09-13T11:28:41;21.80;99.90
37446;DHT22;23307;51.136;14.942;2022-09-13T11:31:27;21.80;99.90
37446;DHT22;23307;51.136;14.942;2022-09-13T11:36:41;22.10;99.90
37446;DHT22;23307;51.136;14.942;2022-09-13T11:39:18;22.20;99.90
37446;DHT22;23307;51.136;14.942;2022-09-13T11:44:55;22.60;99.90
37446;DHT22;23307;51.136;14.942;2022-09-13T11:47:39;22.60;99.90
37446;DHT22;23307;51.136;14.942;2022-09-13T11:52:55;22.70;99.90
37446;DHT22;23307;51.136;14.942;2022-09-13T11:55:50;22.80;99.90
37446;DHT22;23307;51.136;14.942;2022-09-13T11:58:24;22.80;99.90
37446;DHT22;23307;51.136;14.942;2022-09-13T12:00:58;22.70;99.90
37446;DHT22;23307;51.136;14.942;2022-09-13T12:03:38;22.80;99.90
37446;DHT22;23307;51.136;14.942;2022-09-13T12:06:15;22.80;99.90
37446;DHT22;23307;51.136;14.942;2022-09-13T12:11:32;22.90;99.90
37446;DHT22;23307;51.136;14.942;2022-09-13T12:14:04;23.00;99.90
37446;DHT22;23307;51.136;14.942;2022-09-13T12:16:34;23.20;99.90
37446;DHT22;23307;51.136;14.942;2022-09-13T12:19:12;23.50;99.90
37446;DHT22;23307;51.136;14.942;2022-09-13T12:21:40;23.70;99.90
37446;DHT22;23307;51.136;14.942;2022-09-13T12:26:53;24.40;99.90
37446;DHT22;23307;51.136;14.942;2022-09-13T12:29:34;24.60;99.90
37446;DHT22;23307;51.136;14.942;2022-09-13T12:32:05;24.60;99.90
37446;DHT22;23307;51.136;14.942;2022-09-13T12:34:43;24.60;99.90
37446;DHT22;23307;51.136;14.942;2022-09-13T12:42:47;25.00;99.90
37446;DHT22;23307;51.136;14.942;2022-09-13T12:48:17;25.30;99.90
37446;DHT22;23307;51.136;14.942;2022-09-13T12:51:03;25.60;99.90
37446;DHT22;23307;51.136;14.942;2022-09-13T12:53:36;25.50;99.90
37446;DHT22;23307;51.136;14.942;2022-09-13T13:01:53;24.80;99.90
37446;DHT22;23307;51.136;14.942;2022-09-13T13:04:32;24.90;99.90
37446;DHT22;23307;51.136;14.942;2022-09-13T13:07:05;25.20;99.90
37446;DHT22;23307;51.136;14.942;2022-09-13T13:09:42;25.50;99.90
37446;DHT22;23307;51.136;14.942;2022-09-13T13:12:10;25.90;99.90
37446;DHT22;23307;51.136;14.942;2022-09-13T13:23:32;26.80;99.90
37446;DHT22;23307;51.136;14.942;2022-09-13T13:29:03;26.50;99.90
37446;DHT22;23307;51.136;14.942;2022-09-13T13:33:58;26.50;99.90
37446;DHT22;23307;51.136;14.942;2022-09-13T13:36:30;26.70;99.90
37446;DHT22;23307;51.136;14.942;2022-09-13T13:38:59;27.00;99.90
37446;DHT22;23307;51.136;14.942;2022-09-13T13:46:47;27.90;98.80
37446;DHT22;23307;51.136;14.942;2022-09-13T14:00:09;26.30;99.20
37446;DHT22;23307;51.136;14.942;2022-09-13T14:05:24;26.10;99.20
37446;DHT22;23307;51.136;14.942;2022-09-13T14:11:09;25.80;99.60
37446;DHT22;23307;51.136;14.942;2022-09-13T14:16:12;25.50;99.80
37446;DHT22;23307;51.136;14.942;2022-09-13T14:21:22;25.40;99.90
37446;DHT22;23307;51.136;14.942;2022-09-13T14:23:48;25.40;99.90
37446;DHT22;23307;51.136;14.942;2022-09-13T14:26:14;25.50;99.90
37446;DHT22;23307;51.136;14.942;2022-09-13T14:28:40;25.60;99.90
37446;DHT22;23307;51.136;14.942;2022-09-13T14:31:06;25.70;99.90
37446;DHT22;23307;51.136;14.942;2022-09-13T14:33:35;25.90;99.50
37446;DHT22;23307;51.136;14.942;2022-09-13T14:36:05;26.00;99.60
37446;DHT22;23307;51.136;14.942;2022-09-13T14:38:34;26.30;99.20
37446;DHT22;23307;51.136;14.942;2022-09-13T14:41:13;26.40;98.40
37446;DHT22;23307;51.136;14.942;2022-09-13T14:43:39;26.40;98.50
37446;DHT22;23307;51.136;14.942;2022-09-13T14:48:45;26.00;98.80
37446;DHT22;23307;51.136;14.942;2022-09-13T14:53:53;25.90;99.50
37446;DHT22;23307;51.136;14.942;2022-09-13T14:56:45;25.90;99.10
37446;DHT22;23307;51.136;14.942;2022-09-13T14:59:23;25.70;99.20
37446;DHT22;23307;51.136;14.942;2022-09-13T15:01:50;25.50;99.50
37446;DHT22;23307;51.136;14.942;2022-09-13T15:04:17;25.40;99.90
37446;DHT22;23307;51.136;14.942;2022-09-13T15:06:43;25.20;99.90
37446;DHT22;23307;51.136;14.942;2022-09-13T15:11:37;24.90;99.90
37446;DHT22;23307;51.136;14.942;2022-09-13T15:16:50;24.70;99.90
37446;DHT22;23307;51.136;14.942;2022-09-13T15:19:27;24.60;99.90
37446;DHT22;23307;51.136;14.942;2022-09-13T15:22:02;24.60;99.90
37446;DHT22;23307;51.136;14.942;2022-09-13T15:24:32;24.40;99.90
37446;DHT22;23307;51.136;14.942;2022-09-13T15:27:15;24.40;99.90
37446;DHT22;23307;51.136;14.942;2022-09-13T15:29:48;24.40;99.90
37446;DHT22;23307;51.136;14.942;2022-09-13T15:32:22;24.40;99.90
37446;DHT22;23307;51.136;14.942;2022-09-13T15:34:49;24.40;99.90
37446;DHT22;23307;51.136;14.942;2022-09-13T15:37:15;24.30;99.90
37446;DHT22;23307;51.136;14.942;2022-09-13T15:39:47;24.20;99.90
37446;DHT22;23307;51.136;14.942;2022-09-13T15:42:15;24.10;99.90
37446;DHT22;23307;51.136;14.942;2022-09-13T15:44:42;24.10;99.90
37446;DHT22;23307;51.136;14.942;2022-09-13T15:47:15;24.10;99.90
37446;DHT22;23307;51.136;14.942;2022-09-13T15:49:47;24.00;99.90
37446;DHT22;23307;51.136;14.942;2022-09-13T15:52:14;24.00;99.90
37446;DHT22;23307;51.136;14.942;2022-09-13T15:54:40;23.90;99.90
37446;DHT22;23307;51.136;14.942;2022-09-13T15:57:09;23.80;99.90
37446;DHT22;23307;51.136;14.942;2022-09-13T15:59:35;23.70;99.90
37446;DHT22;23307;51.136;14.942;2022-09-13T16:02:01;23.70;99.90
37446;DHT22;23307;51.136;14.942;2022-09-13T16:04:33;23.60;99.90
37446;DHT22;23307;51.136;14.942;2022-09-13T16:06:59;23.50;99.90
37446;DHT22;23307;51.136;14.942;2022-09-13T16:09:24;23.50;99.90
37446;DHT22;23307;51.136;14.942;2022-09-13T16:11:51;23.50;99.90
37446;DHT22;23307;51.136;14.942;2022-09-13T16:14:17;23.40;99.90
37446;DHT22;23307;51.136;14.942;2022-09-13T16:16:44;23.40;99.90
37446;DHT22;23307;51.136;14.942;2022-09-13T16:19:15;23.40;99.90
37446;DHT22;23307;51.136;14.942;2022-09-13T16:21:41;23.30;99.90
37446;DHT22;23307;51.136;14.942;2022-09-13T16:24:06;23.30;99.90
37446;DHT22;23307;51.136;14.942;2022-09-13T16:26:33;23.20;99.90
37446;DHT22;23307;51.136;14.942;2022-09-13T16:28:58;23.10;99.90
37446;DHT22;23307;51.136;14.942;2022-09-13T16:31:24;23.10;99.90
37446;DHT22;23307;51.136;14.942;2022-09-13T16:33:49;23.10;99.90
37446;DHT22;23307;51.136;14.942;2022-09-13T16:36:15;23.10;99.90
37446;DHT22;23307;51.136;14.942;2022-09-13T16:38:40;23.10;99.90
37446;DHT22;23307;51.136;14.942;2022-09-13T16:41:06;23.10;99.90
37446;DHT22;23307;51.136;14.942;2022-09-13T16:43:32;23.10;99.90
37446;DHT22;23307;51.136;14.942;2022-09-13T16:45:58;23.00;99.90
37446;DHT22;23307;51.136;14.942;2022-09-13T16:48:24;23.00;99.90
37446;DHT22;23307;51.136;14.942;2022-09-13T16:50:50;22.90;99.90
37446;DHT22;23307;51.136;14.942;2022-09-13T16:53:16;23.00;99.90
37446;DHT22;23307;51.136;14.942;2022-09-13T16:55:42;22.90;99.90
37446;DHT22;23307;51.136;14.942;2022-09-13T16:58:10;22.90;99.90
37446;DHT22;23307;51.136;14.942;2022-09-13T17:00:35;22.90;99.90
37446;DHT22;23307;51.136;14.942;2022-09-13T17:03:01;22.80;99.90
37446;DHT22;23307;51.136;14.942;2022-09-13T17:05:26;22.80;99.90
37446;DHT22;23307;51.136;14.942;2022-09-13T17:07:52;22.80;99.90
37446;DHT22;23307;51.136;14.942;2022-09-13T17:10:18;22.80;99.90
37446;DHT22;23307;51.136;14.942;2022-09-13T17:12:44;22.70;99.90
37446;DHT22;23307;51.136;14.942;2022-09-13T17:15:09;22.70;99.90
37446;DHT22;23307;51.136;14.942;2022-09-13T17:17:35;22.70;99.90
37446;DHT22;23307;51.136;14.942;2022-09-13T17:20:04;22.60;99.90
37446;DHT22;23307;51.136;14.942;2022-09-13T17:22:32;22.60;99.90
37446;DHT22;23307;51.136;14.942;2022-09-13T17:24:58;22.60;99.90
37446;DHT22;23307;51.136;14.942;2022-09-13T17:27:23;22.50;99.90
37446;DHT22;23307;51.136;14.942;2022-09-13T17:29:49;22.50;99.90
37446;DHT22;23307;51.136;14.942;2022-09-13T17:32:14;22.40;99.90
37446;DHT22;23307;51.136;14.942;2022-09-13T17:34:40;22.40;99.90
37446;DHT22;23307;51.136;14.942;2022-09-13T17:37:05;22.40;99.90
37446;DHT22;23307;51.136;14.942;2022-09-13T17:39:31;22.30;99.90
37446;DHT22;23307;51.136;14.942;2022-09-13T17:41:57;22.30;99.90
37446;DHT22;23307;51.136;14.942;2022-09-13T17:44:23;22.30;99.90
37446;DHT22;23307;51.136;14.942;2022-09-13T17:46:48;22.30;99.90
37446;DHT22;23307;51.136;14.942;2022-09-13T17:49:14;22.30;99.90
37446;DHT22;23307;51.136;14.942;2022-09-13T17:51:39;22.30;99.90
37446;DHT22;23307;51.136;14.942;2022-09-13T17:54:07;22.20;99.90
37446;DHT22;23307;51.136;14.942;2022-09-13T17:56:36;22.10;99.90
37446;DHT22;23307;51.136;14.942;2022-09-13T17:59:16;22.10;99.90
37446;DHT22;23307;51.136;14.942;2022-09-13T18:01:50;22.10;99.90
37446;DHT22;23307;51.136;14.942;2022-09-13T18:04:18;22.20;99.90
37446;DHT22;23307;51.136;14.942;2022-09-13T18:06:44;22.10;99.90
37446;DHT22;23307;51.136;14.942;2022-09-13T18:09:12;22.10;99.90
37446;DHT22;23307;51.136;14.942;2022-09-13T18:11:38;22.10;99.90
37446;DHT22;23307;51.136;14.942;2022-09-13T18:14:05;22.10;99.90
37446;DHT22;23307;51.136;14.942;2022-09-13T18:16:30;22.10;99.90
37446;DHT22;23307;51.136;14.942;2022-09-13T18:18:57;22.00;99.90
37446;DHT22;23307;51.136;14.942;2022-09-13T18:21:24;22.10;99.90
37446;DHT22;23307;51.136;14.942;2022-09-13T18:23:52;22.00;99.90
37446;DHT22;23307;51.136;14.942;2022-09-13T18:26:20;22.00;99.90
37446;DHT22;23307;51.136;14.942;2022-09-13T18:28:52;22.00;99.90
37446;DHT22;23307;51.136;14.942;2022-09-13T18:31:18;22.00;99.90
37446;DHT22;23307;51.136;14.942;2022-09-13T18:33:44;22.00;99.90